Time;durP1;ratioP1;P1;durP2;ratioP2;P2;SDS_P1;SDS_P2;PMS_P1;PMS_P2;Temp;Humidity;BMP_temperature;BMP_pressure;BME280_temperature;BME280_humidity;BME280_pressure;Samples;Min_cycle;Max_cycle;Signal;HPM_P1;HPM_P2
2024/02/18 05:32:22;;;;;;;0.00;0.00;;;11.90;88.30;;;;;;6150939;23;20051;-76
2024/02/18 05:34:48;;;;;;;0.10;0.10;;;11.90;88.20;;;;;;6160098;23;20040;-77
2024/02/18 05:37:14;;;;;;;0.10;0.10;;;11.90;88.20;;;;;;6160235;23;20330;-77
2024/02/18 05:39:39;;;;;;;0.10;0.10;;;11.90;88.10;;;;;;6159408;23;20505;-77
2024/02/18 05:42:06;;;;;;;0.10;0.10;;;11.90;88.20;;;;;;6159829;23;20082;-77
2024/02/18 05:44:32;;;;;;;0.10;0.10;;;11.80;88.20;;;;;;6159422;23;20002;-77
2024/02/18 05:46:58;;;;;;;0.10;0.10;;;11.80;88.40;;;;;;6159800;23;20001;-76
2024/02/18 05:49:24;;;;;;;0.00;0.00;;;11.80;88.30;;;;;;6159919;23;19998;-77
2024/02/18 05:51:53;;;;;;;0.05;0.05;;;11.80;88.40;;;;;;6160338;23;20048;-77
2024/02/18 05:54:20;;;;;;;0.10;0.10;;;11.80;88.40;;;;;;6159138;23;19998;-76
2024/02/18 05:56:46;;;;;;;0.10;0.10;;;11.80;88.40;;;;;;6160061;23;20013;-76
2024/02/18 05:59:12;;;;;;;0.10;0.10;;;11.80;88.30;;;;;;6158942;23;20002;-77
2024/02/18 06:01:38;;;;;;;0.08;0.08;;;11.90;88.20;;;;;;6158861;23;20017;-77
2024/02/18 06:04:03;;;;;;;0.10;0.10;;;12.00;88.10;;;;;;6159507;23;20023;-77
2024/02/18 06:06:30;;;;;;;0.08;0.08;;;12.00;88.10;;;;;;6159267;23;20061;-77
2024/02/18 06:08:56;;;;;;;0.10;0.10;;;12.00;88.10;;;;;;6159667;23;20001;-77
2024/02/18 06:11:21;;;;;;;0.10;0.10;;;11.90;88.00;;;;;;6159892;23;20505;-77
2024/02/18 06:13:47;;;;;;;0.10;0.10;;;11.90;88.00;;;;;;6159432;23;20016;-77
2024/02/18 06:16:13;;;;;;;0.00;0.00;;;12.00;88.00;;;;;;6159243;23;20001;-77
2024/02/18 06:18:39;;;;;;;0.10;0.10;;;11.90;87.90;;;;;;6133650;23;20423;-77
2024/02/18 06:21:04;;;;;;;0.10;0.10;;;12.00;88.00;;;;;;6159374;23;20097;-77
2024/02/18 06:23:30;;;;;;;0.10;0.10;;;12.00;88.00;;;;;;6159470;23;20001;-77
2024/02/18 06:25:56;;;;;;;0.10;0.10;;;12.00;87.90;;;;;;6159275;23;20453;-77
2024/02/18 06:28:22;;;;;;;0.00;0.00;;;12.00;87.80;;;;;;6159247;23;20005;-78
2024/02/18 06:30:48;;;;;;;0.10;0.10;;;12.00;87.80;;;;;;6159551;23;20078;-77
2024/02/18 06:33:14;;;;;;;0.00;0.00;;;12.00;87.90;;;;;;6159646;23;20334;-77
2024/02/18 06:35:39;;;;;;;0.10;0.10;;;12.00;87.90;;;;;;6132909;23;20033;-77
2024/02/18 06:38:05;;;;;;;0.10;0.10;;;12.00;87.80;;;;;;6159444;23;20002;-77
2024/02/18 06:40:31;;;;;;;0.10;0.10;;;12.00;87.90;;;;;;6133598;23;20056;-77
2024/02/18 06:42:57;;;;;;;0.10;0.10;;;12.20;87.70;;;;;;6158793;23;20006;-77
2024/02/18 06:45:22;;;;;;;0.10;0.10;;;12.20;87.70;;;;;;6159382;23;20323;-77
2024/02/18 06:47:48;;;;;;;0.10;0.10;;;12.20;87.60;;;;;;6159189;23;20080;-77
2024/02/18 06:50:15;;;;;;;0.10;0.10;;;12.20;87.80;;;;;;6159041;23;20036;-77
2024/02/18 06:52:41;;;;;;;0.10;0.10;;;12.10;88.90;;;;;;6159208;23;20733;-77
2024/02/18 06:55:07;;;;;;;0.10;0.10;;;12.10;89.10;;;;;;6133414;23;20032;-77
2024/02/18 06:57:33;;;;;;;0.03;0.03;;;12.10;89.40;;;;;;6158644;23;20004;-77
2024/02/18 06:59:59;;;;;;;0.10;0.10;;;12.00;89.50;;;;;;6159468;23;19998;-77
2024/02/18 07:02:24;;;;;;;0.10;0.10;;;12.00;89.60;;;;;;6158710;23;19997;-77
2024/02/18 07:04:50;;;;;;;0.10;0.10;;;12.00;89.50;;;;;;6159149;23;20033;-77
2024/02/18 07:07:16;;;;;;;0.10;0.10;;;12.00;89.50;;;;;;6159447;23;20446;-77
2024/02/18 07:09:42;;;;;;;0.10;0.10;;;11.90;89.70;;;;;;6159048;23;20001;-77
2024/02/18 07:12:08;;;;;;;0.10;0.10;;;11.90;89.80;;;;;;6133059;23;20016;-77
2024/02/18 07:14:35;;;;;;;0.10;0.10;;;12.00;89.70;;;;;;6159085;23;20532;-78
2024/02/18 07:17:01;;;;;;;0.10;0.10;;;11.90;89.90;;;;;;6133010;23;20056;-77
2024/02/18 07:19:26;;;;;;;0.10;0.10;;;11.90;89.90;;;;;;6159056;23;20049;-77
2024/02/18 07:21:52;;;;;;;0.10;0.10;;;11.90;89.80;;;;;;6159086;23;20001;-77
2024/02/18 07:24:18;;;;;;;0.10;0.10;;;12.00;89.90;;;;;;6159159;23;20008;-77
2024/02/18 07:26:43;;;;;;;0.10;0.10;;;11.90;89.90;;;;;;6159153;23;19998;-77
2024/02/18 07:29:09;;;;;;;0.10;0.10;;;11.90;89.90;;;;;;6132446;23;20001;-77
2024/02/18 07:31:36;;;;;;;0.10;0.10;;;12.00;90.00;;;;;;6144111;23;20041;-77
2024/02/18 07:34:04;;;;;;;0.10;0.10;;;11.90;90.00;;;;;;6156541;23;20460;-77
2024/02/18 07:36:30;;;;;;;0.10;0.10;;;11.90;90.00;;;;;;6180670;23;20016;-77
2024/02/18 07:38:56;;;;;;;0.00;0.00;;;11.90;90.00;;;;;;6158950;23;20084;-77
2024/02/18 07:41:24;;;;;;;0.10;0.10;;;11.90;90.10;;;;;;6158599;23;20002;-77
2024/02/18 07:43:49;;;;;;;0.10;0.10;;;12.00;90.10;;;;;;6157051;23;20009;-77
2024/02/18 07:46:15;;;;;;;0.10;0.10;;;12.00;90.20;;;;;;6158460;23;20438;-78
2024/02/18 07:48:40;;;;;;;0.10;0.10;;;12.00;90.10;;;;;;6156955;23;20005;-79
2024/02/18 07:51:06;;;;;;;0.10;0.10;;;12.10;90.00;;;;;;6156570;23;20101;-77
2024/02/18 07:54:17;;;;;;;0.10;0.10;;;12.10;89.90;;;;;;6156791;23;20438;-83
2024/02/18 07:56:48;;;;;;;0.10;0.10;;;12.20;89.70;;;;;;6146257;23;20010;-81
2024/02/18 07:59:14;;;;;;;0.10;0.10;;;12.20;89.80;;;;;;6156765;23;20406;-81
2024/02/18 08:01:40;;;;;;;0.10;0.10;;;12.20;89.80;;;;;;6159212;23;20001;-79
2024/02/18 08:04:06;;;;;;;0.10;0.10;;;12.20;89.80;;;;;;6159799;23;20080;-77
2024/02/18 08:06:32;;;;;;;0.10;0.10;;;12.30;89.70;;;;;;6160262;23;20009;-77
2024/02/18 08:08:59;;;;;;;0.10;0.10;;;12.30;89.60;;;;;;6160261;23;20012;-78
2024/02/18 08:11:25;;;;;;;0.10;0.10;;;12.30;89.50;;;;;;6160483;23;20009;-77
2024/02/18 08:13:51;;;;;;;0.10;0.10;;;12.30;89.60;;;;;;6158757;23;20005;-77
2024/02/18 08:16:18;;;;;;;0.10;0.10;;;12.30;89.50;;;;;;6160568;23;20464;-76
2024/02/18 08:18:44;;;;;;;0.00;0.00;;;12.30;89.50;;;;;;6147476;23;20005;-77
2024/02/18 08:21:10;;;;;;;0.10;0.10;;;12.30;89.50;;;;;;6160502;23;20008;-76
2024/02/18 08:23:35;;;;;;;0.10;0.10;;;12.40;89.50;;;;;;6158433;23;20183;-77
2024/02/18 08:26:01;;;;;;;0.10;0.10;;;12.40;89.50;;;;;;6160417;23;19998;-75
2024/02/18 08:28:27;;;;;;;0.10;0.10;;;12.40;89.50;;;;;;6158432;23;20009;-78
2024/02/18 08:30:53;;;;;;;0.10;0.10;;;12.50;89.40;;;;;;6157340;23;20469;-80
2024/02/18 08:33:19;;;;;;;0.10;0.10;;;12.50;89.40;;;;;;6158617;23;20001;-80
2024/02/18 08:35:44;;;;;;;0.10;0.10;;;12.40;89.50;;;;;;6159316;23;20041;-79
2024/02/18 08:38:16;;;;;;;0.10;0.10;;;12.50;89.50;;;;;;6159889;23;20525;-83
2024/02/18 08:40:41;;;;;;;0.10;0.10;;;12.50;89.60;;;;;;6159342;23;20001;-81
2024/02/18 08:43:11;;;;;;;0.00;0.00;;;12.50;89.50;;;;;;6159610;23;20056;-79
2024/02/18 08:45:37;;;;;;;0.08;0.08;;;12.50;89.40;;;;;;6159003;23;20018;-78
2024/02/18 08:48:06;;;;;;;0.10;0.10;;;12.50;89.30;;;;;;6160211;23;20006;-86
2024/02/18 08:50:31;;;;;;;0.10;0.10;;;12.60;89.60;;;;;;6157582;23;20011;-74
2024/02/18 08:52:57;;;;;;;0.10;0.10;;;12.50;89.60;;;;;;6157923;23;20118;-74
2024/02/18 08:55:22;;;;;;;0.10;0.10;;;12.60;89.50;;;;;;6157268;23;20002;-75
2024/02/18 08:57:48;;;;;;;0.00;0.00;;;12.60;89.50;;;;;;6157120;23;20046;-76
2024/02/18 09:00:14;;;;;;;0.10;0.10;;;12.60;89.60;;;;;;6156779;23;20414;-75
2024/02/18 09:02:39;;;;;;;0.10;0.10;;;12.60;89.60;;;;;;6158571;23;19998;-74
2024/02/18 09:05:07;;;;;;;0.10;0.10;;;12.70;89.50;;;;;;6159382;23;20005;-74
2024/02/18 09:07:33;;;;;;;0.10;0.10;;;12.70;89.60;;;;;;6159768;23;20005;-75
2024/02/18 09:09:58;;;;;;;0.00;0.00;;;12.60;89.60;;;;;;6158540;23;20012;-75
2024/02/18 09:12:24;;;;;;;0.10;0.10;;;12.70;89.70;;;;;;6157660;23;20006;-75
2024/02/18 09:14:49;;;;;;;0.00;0.00;;;12.60;89.70;;;;;;6158048;23;20005;-74
2024/02/18 09:17:17;;;;;;;0.10;0.10;;;12.60;89.90;;;;;;6159291;23;19998;-75
2024/02/18 09:19:46;;;;;;;0.10;0.10;;;12.50;90.00;;;;;;6159668;23;20068;-75
2024/02/18 09:22:12;;;;;;;0.10;0.10;;;12.40;90.20;;;;;;6159515;23;20032;-75
2024/02/18 09:24:37;;;;;;;0.10;0.10;;;12.40;90.50;;;;;;6159491;23;20030;-75
2024/02/18 09:27:06;;;;;;;0.10;0.10;;;12.40;90.60;;;;;;6160339;23;20079;-75
2024/02/18 09:29:32;;;;;;;0.10;0.10;;;12.40;90.60;;;;;;6158580;23;20068;-76
2024/02/18 09:31:57;;;;;;;0.10;0.10;;;12.30;90.80;;;;;;6144671;23;20449;-75
2024/02/18 09:34:23;;;;;;;0.00;0.00;;;12.30;91.00;;;;;;6152969;23;20001;-75
2024/02/18 09:36:48;;;;;;;0.10;0.10;;;12.30;91.00;;;;;;6151972;23;20072;-75
2024/02/18 09:39:14;;;;;;;0.10;0.10;;;12.30;91.00;;;;;;6153825;23;20063;-75
2024/02/18 09:41:45;;;;;;;0.10;0.10;;;12.30;91.10;;;;;;6154886;23;20004;-77
2024/02/18 09:44:13;;;;;;;0.10;0.10;;;12.30;91.30;;;;;;6128389;23;20006;-75
2024/02/18 09:46:41;;;;;;;0.10;0.10;;;12.40;91.20;;;;;;6152644;23;20088;-76
2024/02/18 09:49:08;;;;;;;0.10;0.10;;;12.50;91.20;;;;;;6154539;23;20012;-77
2024/02/18 09:51:35;;;;;;;0.10;0.10;;;12.50;91.00;;;;;;6159505;23;20032;-74
2024/02/18 09:54:08;;;;;;;0.10;0.10;;;12.60;90.80;;;;;;6156567;23;20005;-75
2024/02/18 09:56:34;;;;;;;0.10;0.10;;;12.70;90.80;;;;;;6158679;23;20441;-75
2024/02/18 09:58:59;;;;;;;0.10;0.10;;;12.70;90.70;;;;;;6156977;23;20005;-75
2024/02/18 10:01:25;;;;;;;0.10;0.10;;;12.70;90.60;;;;;;6127875;23;20096;-75
2024/02/18 10:03:51;;;;;;;0.10;0.10;;;12.80;90.50;;;;;;6157657;23;20290;-75
2024/02/18 10:06:17;;;;;;;0.10;0.10;;;12.80;90.40;;;;;;6128288;23;20010;-75
2024/02/18 10:08:51;;;;;;;0.00;0.00;;;12.80;90.50;;;;;;6158731;23;20084;-75
2024/02/18 10:11:19;;;;;;;0.10;0.10;;;12.80;90.50;;;;;;6158531;23;20005;-75
2024/02/18 10:13:45;;;;;;;0.05;0.05;;;12.80;90.50;;;;;;6158625;23;20136;-75
2024/02/18 10:16:10;;;;;;;0.10;0.10;;;12.80;90.40;;;;;;6158403;23;20429;-75
2024/02/18 10:18:36;;;;;;;0.10;0.10;;;12.80;90.70;;;;;;6155598;23;20032;-75
2024/02/18 10:21:02;;;;;;;0.10;0.10;;;12.80;90.60;;;;;;6132426;23;20025;-75
2024/02/18 10:23:28;;;;;;;0.10;0.10;;;12.90;90.60;;;;;;6157623;23;20085;-75
2024/02/18 10:25:54;;;;;;;0.10;0.10;;;12.90;90.50;;;;;;6132259;23;20454;-76
2024/02/18 10:28:20;;;;;;;0.10;0.10;;;13.00;90.70;;;;;;6158261;23;20036;-76
2024/02/18 10:30:45;;;;;;;0.10;0.10;;;12.90;90.50;;;;;;6134353;23;20064;-76
2024/02/18 10:33:11;;;;;;;0.10;0.10;;;12.90;90.70;;;;;;6157073;23;20013;-76
2024/02/18 10:35:37;;;;;;;0.00;0.00;;;12.90;90.70;;;;;;6158243;23;20006;-75
2024/02/18 10:38:07;;;;;;;0.10;0.10;;;12.90;90.70;;;;;;6158161;23;20005;-76
2024/02/18 10:40:42;;;;;;;0.10;0.10;;;12.90;90.80;;;;;;6158042;23;20005;-75
2024/02/18 10:43:12;;;;;;;0.10;0.10;;;12.90;90.90;;;;;;6155830;23;20005;-76
2024/02/18 10:45:41;;;;;;;0.10;0.10;;;13.00;90.80;;;;;;6181910;23;20040;-75
2024/02/18 10:48:10;;;;;;;0.10;0.10;;;13.10;90.50;;;;;;6181686;23;20044;-75
2024/02/18 10:50:42;;;;;;;0.10;0.10;;;13.20;90.60;;;;;;6159304;23;20470;-75
2024/02/18 10:53:42;;;;;;;0.10;0.10;;;13.20;90.50;;;;;;6157699;23;20001;-76
2024/02/18 10:56:13;;;;;;;0.10;0.10;;;13.30;90.50;;;;;;6158875;23;20002;-76
2024/02/18 10:59:12;;;;;;;0.10;0.10;;;13.30;90.40;;;;;;6156403;23;20422;-75
2024/02/18 11:02:04;;;;;;;0.10;0.10;;;13.40;90.40;;;;;;6158166;23;20085;-75
2024/02/18 11:04:30;;;;;;;0.10;0.10;;;13.50;90.10;;;;;;6157375;23;19998;-76
2024/02/18 11:06:56;;;;;;;0.00;0.00;;;13.60;90.20;;;;;;6157047;23;20009;-75
2024/02/18 11:09:24;;;;;;;0.00;0.00;;;13.70;90.00;;;;;;6182435;23;20009;-75
2024/02/18 11:11:51;;;;;;;0.10;0.10;;;13.70;89.90;;;;;;6158123;23;20032;-75
2024/02/18 11:14:19;;;;;;;0.10;0.10;;;13.70;90.00;;;;;;6156565;23;20032;-73
2024/02/18 11:16:46;;;;;;;0.00;0.00;;;13.70;90.00;;;;;;6181049;23;20006;-75
2024/02/18 11:19:12;;;;;;;0.10;0.10;;;13.60;90.10;;;;;;6157833;23;20001;-74
2024/02/18 11:21:41;;;;;;;0.10;0.10;;;13.60;90.10;;;;;;6181507;23;20006;-74
2024/02/18 11:24:07;;;;;;;0.10;0.10;;;13.60;90.20;;;;;;6158712;23;20029;-74
2024/02/18 11:26:33;;;;;;;0.10;0.10;;;13.60;90.30;;;;;;6158384;23;20011;-74
2024/02/18 11:29:01;;;;;;;0.00;0.00;;;13.70;90.30;;;;;;6157643;23;20072;-74
2024/02/18 11:31:28;;;;;;;0.00;0.00;;;13.80;90.10;;;;;;6157059;23;20026;-76
2024/02/18 11:33:54;;;;;;;0.10;0.10;;;13.80;90.20;;;;;;6131958;23;20121;-74
2024/02/18 11:36:22;;;;;;;0.10;0.10;;;13.90;90.20;;;;;;6158228;23;20095;-74
2024/02/18 11:38:52;;;;;;;0.10;0.10;;;13.90;90.10;;;;;;6158137;23;20080;-76
2024/02/18 11:41:20;;;;;;;0.10;0.10;;;13.90;90.10;;;;;;6158694;23;20013;-78
2024/02/18 11:43:51;;;;;;;0.10;0.10;;;14.00;90.10;;;;;;6157720;23;19998;-77
2024/02/18 11:46:26;;;;;;;0.10;0.10;;;14.20;90.00;;;;;;6132383;23;20080;-78
2024/02/18 11:48:53;;;;;;;0.10;0.10;;;14.20;90.00;;;;;;6132630;23;20009;-75
2024/02/18 11:51:24;;;;;;;0.10;0.10;;;14.30;89.90;;;;;;6158952;23;20028;-77
2024/02/18 11:53:50;;;;;;;0.10;0.10;;;14.50;89.80;;;;;;6158558;23;20076;-77
2024/02/18 11:56:16;;;;;;;0.10;0.10;;;14.60;89.60;;;;;;6158705;23;20016;-79
2024/02/18 11:58:44;;;;;;;0.00;0.00;;;14.70;89.40;;;;;;6132623;23;20009;-78
2024/02/18 12:01:10;;;;;;;0.10;0.10;;;14.70;89.30;;;;;;6158490;23;20002;-78
2024/02/18 12:03:36;;;;;;;0.10;0.10;;;14.80;89.20;;;;;;6158367;23;20124;-75
2024/02/18 12:06:05;;;;;;;0.10;0.10;;;14.80;89.00;;;;;;6158184;23;19998;-77
2024/02/18 12:08:31;;;;;;;0.00;0.00;;;14.80;89.10;;;;;;6158966;23;20001;-77
2024/02/18 12:11:03;;;;;;;0.10;0.10;;;14.80;89.00;;;;;;6132679;23;20009;-76
2024/02/18 12:13:29;;;;;;;0.10;0.10;;;14.90;89.00;;;;;;6158233;23;20032;-76
2024/02/18 12:15:59;;;;;;;0.10;0.10;;;14.80;88.80;;;;;;6158245;23;20009;-75
2024/02/18 12:18:25;;;;;;;0.10;0.10;;;14.90;88.80;;;;;;6158386;23;20001;-79
2024/02/18 12:20:53;;;;;;;0.00;0.00;;;15.00;88.80;;;;;;6133034;23;20005;-77
2024/02/18 12:23:22;;;;;;;0.03;0.03;;;15.00;88.60;;;;;;6158303;23;20337;-76
2024/02/18 12:25:49;;;;;;;0.00;0.00;;;15.00;88.70;;;;;;6158069;23;20008;-76
2024/02/18 12:28:14;;;;;;;0.10;0.10;;;15.10;88.70;;;;;;6158554;23;20001;-75
2024/02/18 12:30:48;;;;;;;0.10;0.10;;;15.20;88.60;;;;;;6158347;23;20016;-80
2024/02/18 12:33:15;;;;;;;0.10;0.10;;;15.40;88.40;;;;;;6157168;23;20060;-78
2024/02/18 12:35:41;;;;;;;0.10;0.10;;;15.50;88.30;;;;;;6157574;23;20005;-82
2024/02/18 12:38:08;;;;;;;0.00;0.00;;;15.70;88.10;;;;;;6152262;23;20708;-78
2024/02/18 12:40:35;;;;;;;0.10;0.10;;;15.70;87.80;;;;;;6127979;23;20076;-77
2024/02/18 12:43:00;;;;;;;0.10;0.10;;;15.80;88.00;;;;;;6117178;23;20001;-77
2024/02/18 12:45:27;;;;;;;0.10;0.10;;;15.90;87.60;;;;;;6146903;23;20005;-78
2024/02/18 12:47:55;;;;;;;0.00;0.00;;;15.90;87.70;;;;;;6158829;23;20002;-78
2024/02/18 12:50:24;;;;;;;0.10;0.10;;;16.00;87.60;;;;;;6159868;23;20031;-80
2024/02/18 12:52:49;;;;;;;0.10;0.10;;;16.20;87.40;;;;;;6133301;23;20016;-79
2024/02/18 12:55:15;;;;;;;0.10;0.10;;;16.60;87.20;;;;;;6133469;23;20092;-79
2024/02/18 12:57:41;;;;;;;0.10;0.10;;;16.70;86.70;;;;;;6159301;23;19997;-79
2024/02/18 13:00:08;;;;;;;0.10;0.10;;;16.70;86.30;;;;;;6159549;23;20009;-80
2024/02/18 13:02:34;;;;;;;0.10;0.10;;;16.80;86.40;;;;;;6158468;23;19997;-80
2024/02/18 13:05:02;;;;;;;0.10;0.10;;;16.90;86.40;;;;;;6158669;23;20008;-80
2024/02/18 13:07:28;;;;;;;0.10;0.10;;;16.80;85.80;;;;;;6133516;23;20013;-80
2024/02/18 13:09:55;;;;;;;0.10;0.10;;;16.80;86.10;;;;;;6159236;23;20052;-81
2024/02/18 13:12:21;;;;;;;0.10;0.10;;;16.70;86.20;;;;;;6132319;23;20013;-81
2024/02/18 13:14:47;;;;;;;0.10;0.10;;;16.70;86.40;;;;;;6159157;23;20002;-80
2024/02/18 13:17:14;;;;;;;0.00;0.00;;;16.70;86.30;;;;;;6132599;23;20010;-80
2024/02/18 13:19:43;;;;;;;0.10;0.10;;;16.70;86.40;;;;;;6133383;23;20005;-80
2024/02/18 13:22:10;;;;;;;0.00;0.00;;;16.60;86.40;;;;;;6159000;23;20001;-80
2024/02/18 13:24:36;;;;;;;0.00;0.00;;;16.50;86.40;;;;;;6158899;23;20002;-80
2024/02/18 13:27:02;;;;;;;0.10;0.10;;;16.30;86.80;;;;;;6133108;23;20005;-79
2024/02/18 13:29:28;;;;;;;0.00;0.00;;;16.30;86.90;;;;;;6158195;23;19997;-79
2024/02/18 13:31:54;;;;;;;0.10;0.10;;;16.20;87.00;;;;;;6159769;23;20014;-79
2024/02/18 13:34:20;;;;;;;0.10;0.10;;;16.20;86.90;;;;;;6133172;23;20008;-79
2024/02/18 13:36:49;;;;;;;0.10;0.10;;;16.60;86.80;;;;;;6133587;23;20084;-79
2024/02/18 13:39:16;;;;;;;0.10;0.10;;;17.20;86.10;;;;;;6132189;23;20029;-81
2024/02/18 13:41:42;;;;;;;0.10;0.10;;;17.40;85.30;;;;;;6159166;23;20004;-82
2024/02/18 13:44:08;;;;;;;0.10;0.10;;;17.40;84.60;;;;;;6133197;23;20303;-79
2024/02/18 13:46:35;;;;;;;0.10;0.10;;;17.40;84.00;;;;;;6158332;23;20009;-91
2024/02/18 13:49:01;;;;;;;0.10;0.10;;;17.30;84.20;;;;;;6132979;23;20016;-84
2024/02/18 13:51:26;;;;;;;0.05;0.05;;;17.20;84.50;;;;;;6133147;23;20093;-80
2024/02/18 13:53:52;;;;;;;0.10;0.10;;;16.90;84.20;;;;;;6159327;23;20461;-79
2024/02/18 13:56:18;;;;;;;0.10;0.10;;;16.80;84.70;;;;;;6159247;23;20445;-88
2024/02/18 13:58:44;;;;;;;0.00;0.00;;;16.60;85.00;;;;;;6132619;23;20005;-81
2024/02/18 14:01:09;;;;;;;0.00;0.00;;;16.30;84.40;;;;;;6159784;23;19998;-85
2024/02/18 14:03:35;;;;;;;0.00;0.00;;;16.00;84.80;;;;;;6133367;23;20010;-80
2024/02/18 14:06:02;;;;;;;0.03;0.03;;;15.90;85.30;;;;;;6129599;23;20434;-81
2024/02/18 14:08:27;;;;;;;0.08;0.08;;;15.80;85.20;;;;;;6157195;23;20005;-78
2024/02/18 14:10:53;;;;;;;0.10;0.10;;;15.90;85.30;;;;;;6132041;23;20350;-79
2024/02/18 14:13:20;;;;;;;0.10;0.10;;;16.00;85.00;;;;;;6158780;23;20006;-78
2024/02/18 14:15:46;;;;;;;0.10;0.10;;;16.20;84.90;;;;;;6132563;23;20037;-78
2024/02/18 14:18:14;;;;;;;0.10;0.10;;;16.20;84.40;;;;;;6158621;23;20456;-78
2024/02/18 14:20:42;;;;;;;0.10;0.10;;;16.30;84.40;;;;;;6132457;23;20430;-78
2024/02/18 14:23:09;;;;;;;0.10;0.10;;;16.50;84.30;;;;;;6158897;23;20002;-78
2024/02/18 14:25:34;;;;;;;0.00;0.00;;;16.60;83.90;;;;;;6155176;23;20001;-77
2024/02/18 14:28:00;;;;;;;0.10;0.10;;;16.60;83.50;;;;;;6155700;23;20009;-78
2024/02/18 14:30:26;;;;;;;0.10;0.10;;;16.70;83.40;;;;;;6158074;23;20032;-78
2024/02/18 14:32:51;;;;;;;0.10;0.10;;;16.70;83.30;;;;;;6131803;23;20021;-77
2024/02/18 14:35:17;;;;;;;0.10;0.10;;;16.50;82.30;;;;;;6157424;23;20582;-78
2024/02/18 14:37:43;;;;;;;0.10;0.10;;;16.50;81.80;;;;;;6155115;23;19997;-78
2024/02/18 14:40:13;;;;;;;0.10;0.10;;;16.30;82.10;;;;;;6132663;23;20002;-77
2024/02/18 14:42:43;;;;;;;0.10;0.10;;;16.30;81.40;;;;;;6132140;23;20015;-78
2024/02/18 14:45:13;;;;;;;0.10;0.10;;;16.20;81.30;;;;;;6155493;23;20016;-78
2024/02/18 14:47:42;;;;;;;0.10;0.10;;;16.30;80.80;;;;;;6158152;23;20064;-78
2024/02/18 14:50:14;;;;;;;0.10;0.10;;;16.30;81.10;;;;;;6158654;23;20005;-78
2024/02/18 14:52:41;;;;;;;0.08;0.08;;;16.30;80.10;;;;;;6133034;23;20005;-78
2024/02/18 14:55:07;;;;;;;0.10;0.10;;;16.30;80.30;;;;;;6126704;23;20118;-79
2024/02/18 14:57:33;;;;;;;0.10;0.10;;;16.50;80.60;;;;;;6131787;23;20005;-84
2024/02/18 15:00:02;;;;;;;0.10;0.10;;;16.50;80.30;;;;;;6153424;23;20085;-78
2024/02/18 15:02:28;;;;;;;0.00;0.00;;;16.50;80.00;;;;;;6131774;23;20052;-78
2024/02/18 15:04:55;;;;;;;0.08;0.08;;;16.60;80.00;;;;;;6131024;23;20064;-78
2024/02/18 15:07:21;;;;;;;0.10;0.10;;;16.60;79.50;;;;;;6152464;23;20009;-77
2024/02/18 15:09:46;;;;;;;0.00;0.00;;;16.50;78.70;;;;;;6156024;23;20005;-78
2024/02/18 15:12:12;;;;;;;0.00;0.00;;;16.60;79.10;;;;;;6128387;23;20009;-78
2024/02/18 15:14:38;;;;;;;0.10;0.10;;;16.70;78.60;;;;;;6154279;23;20438;-78
2024/02/18 15:17:05;;;;;;;0.10;0.10;;;16.60;78.10;;;;;;6157950;23;20001;-78
2024/02/18 15:19:33;;;;;;;0.10;0.10;;;16.40;78.40;;;;;;6155553;23;20028;-78
2024/02/18 15:21:58;;;;;;;0.10;0.10;;;16.30;78.40;;;;;;6128818;23;20001;-78
2024/02/18 15:24:24;;;;;;;0.00;0.00;;;16.20;78.50;;;;;;6132442;23;20315;-78
2024/02/18 15:27:00;;;;;;;0.10;0.10;;;16.20;78.00;;;;;;6158155;23;20060;-86
2024/02/18 15:29:25;;;;;;;0.10;0.10;;;16.20;78.90;;;;;;6157824;23;20028;-79
2024/02/18 15:31:51;;;;;;;0.10;0.10;;;16.10;78.80;;;;;;6157888;23;20017;-79
2024/02/18 15:34:17;;;;;;;0.10;0.10;;;16.00;79.00;;;;;;6154762;23;20033;-77
2024/02/18 15:36:43;;;;;;;0.00;0.00;;;16.00;78.70;;;;;;6157150;23;20085;-77
2024/02/18 15:39:09;;;;;;;0.10;0.10;;;16.00;79.20;;;;;;6126234;23;20002;-77
2024/02/18 15:41:34;;;;;;;0.00;0.00;;;15.90;79.10;;;;;;6158791;23;20382;-82
2024/02/18 15:44:00;;;;;;;0.10;0.10;;;16.00;79.60;;;;;;6129531;23;20005;-83
2024/02/18 15:46:26;;;;;;;0.10;0.10;;;16.00;80.10;;;;;;6131618;23;20012;-79
2024/02/18 15:48:51;;;;;;;0.10;0.10;;;16.00;79.70;;;;;;6135692;23;20009;-79
2024/02/18 15:51:19;;;;;;;0.10;0.10;;;16.00;79.80;;;;;;6135424;23;20319;-78
2024/02/18 15:53:44;;;;;;;0.10;0.10;;;15.90;79.20;;;;;;6158496;23;20028;-76
2024/02/18 15:56:16;;;;;;;0.10;0.10;;;15.80;80.00;;;;;;6158573;23;20319;-77
2024/02/18 15:58:42;;;;;;;0.10;0.10;;;15.80;80.30;;;;;;6157992;23;19998;-78
2024/02/18 16:01:08;;;;;;;0.10;0.10;;;15.90;80.40;;;;;;6148722;23;20456;-75
2024/02/18 16:03:34;;;;;;;0.00;0.00;;;15.80;79.70;;;;;;6157532;23;20002;-77
2024/02/18 16:06:00;;;;;;;0.00;0.00;;;15.80;80.30;;;;;;6156855;23;20399;-75
2024/02/18 16:08:35;;;;;;;0.03;0.03;;;15.60;80.10;;;;;;6131339;23;20016;-79
2024/02/18 16:11:04;;;;;;;0.10;0.10;;;15.50;80.30;;;;;;6156719;23;20397;-77
2024/02/18 16:13:30;;;;;;;0.00;0.00;;;15.50;80.80;;;;;;6155107;23;20377;-77
2024/02/18 16:15:56;;;;;;;0.10;0.10;;;15.60;80.70;;;;;;6156218;23;20017;-75
2024/02/18 16:18:22;;;;;;;0.05;0.05;;;15.50;80.50;;;;;;6156232;23;20337;-75
2024/02/18 16:20:47;;;;;;;0.03;0.03;;;15.40;80.70;;;;;;6129840;23;20109;-74
2024/02/18 16:23:13;;;;;;;0.00;0.00;;;15.40;81.00;;;;;;6158925;23;20033;-76
2024/02/18 16:25:39;;;;;;;0.10;0.10;;;15.30;81.10;;;;;;6134145;23;20019;-75
2024/02/18 16:28:04;;;;;;;0.10;0.10;;;15.30;81.20;;;;;;6159341;23;20001;-75
2024/02/18 16:30:30;;;;;;;0.00;0.00;;;15.30;81.70;;;;;;6134337;23;20022;-75
2024/02/18 16:32:55;;;;;;;0.00;0.00;;;15.30;81.90;;;;;;6130096;23;20009;-75
2024/02/18 16:35:21;;;;;;;0.10;0.10;;;15.30;82.20;;;;;;6156722;23;20381;-77
2024/02/18 16:37:47;;;;;;;0.00;0.00;;;15.20;82.20;;;;;;6160111;23;20504;-76
2024/02/18 16:40:12;;;;;;;0.05;0.05;;;15.20;82.50;;;;;;6134030;23;20029;-76
2024/02/18 16:42:38;;;;;;;0.10;0.10;;;15.10;82.50;;;;;;6128923;23;20441;-76
2024/02/18 16:45:05;;;;;;;0.00;0.00;;;15.00;82.60;;;;;;6160781;23;19997;-77
2024/02/18 16:47:32;;;;;;;0.10;0.10;;;15.00;82.80;;;;;;6160055;23;20060;-76
2024/02/18 16:49:58;;;;;;;0.10;0.10;;;15.10;82.90;;;;;;6158494;23;20009;-76
2024/02/18 16:52:24;;;;;;;0.10;0.10;;;15.00;82.80;;;;;;6133198;23;20009;-76
2024/02/18 16:54:51;;;;;;;0.00;0.00;;;15.00;82.70;;;;;;6134400;23;20044;-76
2024/02/18 16:57:16;;;;;;;0.00;0.00;;;15.00;82.70;;;;;;6160274;23;19998;-76
2024/02/18 16:59:42;;;;;;;0.00;0.00;;;14.90;83.00;;;;;;6133860;23;20009;-76
2024/02/18 17:02:08;;;;;;;0.00;0.00;;;14.80;83.20;;;;;;6159743;23;19997;-76
2024/02/18 17:04:36;;;;;;;0.10;0.10;;;14.80;83.60;;;;;;6159239;23;20010;-76
2024/02/18 17:07:02;;;;;;;0.00;0.00;;;14.70;83.80;;;;;;6133419;23;20338;-76
2024/02/18 17:09:28;;;;;;;0.03;0.03;;;14.60;84.00;;;;;;6158560;23;19998;-76
2024/02/18 17:11:53;;;;;;;0.00;0.00;;;14.50;84.30;;;;;;6158873;23;20004;-76
2024/02/18 17:14:19;;;;;;;0.00;0.00;;;14.50;84.30;;;;;;6152617;23;19997;-76
2024/02/18 17:16:45;;;;;;;0.08;0.08;;;14.40;84.40;;;;;;6133291;23;20441;-76
2024/02/18 17:19:10;;;;;;;0.10;0.10;;;14.30;84.40;;;;;;6158458;23;20052;-76
2024/02/18 17:21:40;;;;;;;0.00;0.00;;;14.30;84.70;;;;;;6158731;23;20005;-76
2024/02/18 17:24:06;;;;;;;0.10;0.10;;;14.30;84.30;;;;;;6157711;23;20084;-77
2024/02/18 17:26:31;;;;;;;0.10;0.10;;;14.30;84.40;;;;;;6132293;23;20015;-76
2024/02/18 17:28:57;;;;;;;0.10;0.10;;;14.00;84.40;;;;;;6129529;23;20010;-77
2024/02/18 17:31:24;;;;;;;0.10;0.10;;;14.00;84.60;;;;;;6158953;23;20470;-76
2024/02/18 17:33:50;;;;;;;0.08;0.08;;;14.00;84.60;;;;;;6158679;23;20084;-76
2024/02/18 17:36:15;;;;;;;0.00;0.00;;;14.00;84.30;;;;;;6157553;23;20438;-76
2024/02/18 17:38:41;;;;;;;0.03;0.03;;;14.00;84.40;;;;;;6156324;23;20080;-76
2024/02/18 17:41:07;;;;;;;0.00;0.00;;;13.90;84.50;;;;;;6132465;23;20013;-76
2024/02/18 17:43:34;;;;;;;0.00;0.00;;;13.90;84.20;;;;;;6125404;23;20084;-76
2024/02/18 17:46:00;;;;;;;0.00;0.00;;;13.90;84.50;;;;;;6127345;23;20013;-76
2024/02/18 17:48:25;;;;;;;0.10;0.10;;;13.90;84.50;;;;;;6157506;23;20058;-76
2024/02/18 17:50:51;;;;;;;0.00;0.00;;;14.00;84.40;;;;;;6158198;23;20073;-76
2024/02/18 17:53:17;;;;;;;0.00;0.00;;;14.00;84.40;;;;;;6158692;23;20010;-76
2024/02/18 17:55:44;;;;;;;0.10;0.10;;;13.90;84.30;;;;;;6158714;23;20051;-76
2024/02/18 17:58:13;;;;;;;0.00;0.00;;;13.80;84.60;;;;;;6158667;23;20033;-76
2024/02/18 18:00:39;;;;;;;0.03;0.03;;;13.80;84.30;;;;;;6159437;23;20005;-76
2024/02/18 18:03:05;;;;;;;0.00;0.00;;;13.70;84.10;;;;;;6132227;23;20002;-75
2024/02/18 18:05:31;;;;;;;0.10;0.10;;;13.70;84.20;;;;;;6131547;23;20012;-76
2024/02/18 18:07:56;;;;;;;0.10;0.10;;;13.70;84.20;;;;;;6157457;23;19997;-77
2024/02/18 18:10:22;;;;;;;0.03;0.03;;;13.60;83.80;;;;;;6157489;23;20071;-75
2024/02/18 18:12:50;;;;;;;0.10;0.10;;;13.60;84.40;;;;;;6157816;23;20342;-76
2024/02/18 18:15:19;;;;;;;0.00;0.00;;;13.60;84.20;;;;;;6158728;23;20013;-77
2024/02/18 18:17:45;;;;;;;0.10;0.10;;;13.60;84.20;;;;;;6156215;23;19998;-76